FHAW

Details ICAO FHAW
Name Ascension Wideawake Field
Region Saint Helena, Ascension and Tristan da Cunha
Timezone Atlantic/St_Helena (UTC+0.0)
Plans Departing 32
Arriving 57
Stats Elevation 278 ft / 85 m (AMSL)
Location -7.969590° -14.393699°
Runways 1
Magnetic Variation 15.426° W
Sunrise 2017-08-22 07:05:08 UTC / 2017-08-22 07:05:08 Local
Sunset 2017-08-22 18:58:43 UTC / 2017-08-22 18:58:43 Local
Advertisement - Login to hide

Runways

ID Width Length Bearing (true) Bearing (mag) Surface Threshold Offset Overrun Length
13 148 ft / 45 m 10,008 ft / 3,050 m 116.79° 132.22° Asphalt 0 ft / 0 m 262 ft / 80 m
31 148 ft / 45 m 10,008 ft / 3,050 m 296.79° 312.22° Asphalt 0 ft / 0 m 495 ft / 151 m

Map

Weather


0- 5 10 15 20 25 30 35+ Temperature / ° C

Clouds and Precipitation
Forecast for 2017-08-22 18:00 UTC. Updated an hour ago

Ground ~20,000 ft ~40,000 ft Winds

METAR

FHAW 221450Z 14015KT 9999 FEW018 SCT030 27/19 Q1015 BLU

TAF

TAF TAF FHAW 221400Z 2212/2306 CNL

Frequencies

Tower 126.20 MHz Wideawake Tower
Warning: Do not use this data for real-world aviation or navigation. No guarantee of current accuracy is given.